sensor_id;sensor_type;location;lat;lon;timestamp;P1;durP1;ratioP1;P2;durP2;ratioP2
10387;SDS011;5240;51.128;4.566;2023-04-24T00:00:31;21.85;;;14.27;;
10387;SDS011;5240;51.128;4.566;2023-04-24T00:02:59;17.95;;;14.45;;
10387;SDS011;5240;51.128;4.566;2023-04-24T00:05:27;21.40;;;14.68;;
10387;SDS011;5240;51.128;4.566;2023-04-24T00:07:54;18.88;;;14.27;;
10387;SDS011;5240;51.128;4.566;2023-04-24T00:10:22;21.27;;;13.95;;
10387;SDS011;5240;51.128;4.566;2023-04-24T00:12:50;20.20;;;14.35;;
10387;SDS011;5240;51.128;4.566;2023-04-24T00:15:17;19.42;;;13.63;;
10387;SDS011;5240;51.128;4.566;2023-04-24T00:17:45;18.17;;;15.40;;
10387;SDS011;5240;51.128;4.566;2023-04-24T00:20:12;19.25;;;15.68;;
10387;SDS011;5240;51.128;4.566;2023-04-24T00:22:40;22.33;;;16.27;;
10387;SDS011;5240;51.128;4.566;2023-04-24T00:25:07;21.88;;;15.98;;
10387;SDS011;5240;51.128;4.566;2023-04-24T00:27:34;24.60;;;16.70;;
10387;SDS011;5240;51.128;4.566;2023-04-24T00:30:04;20.00;;;16.52;;
10387;SDS011;5240;51.128;4.566;2023-04-24T00:32:31;19.73;;;16.10;;
10387;SDS011;5240;51.128;4.566;2023-04-24T00:34:58;19.50;;;15.25;;
10387;SDS011;5240;51.128;4.566;2023-04-24T00:37:25;22.17;;;14.93;;
10387;SDS011;5240;51.128;4.566;2023-04-24T00:39:52;19.08;;;14.95;;
10387;SDS011;5240;51.128;4.566;2023-04-24T00:42:20;22.52;;;14.68;;
10387;SDS011;5240;51.128;4.566;2023-04-24T00:44:47;19.75;;;15.02;;
10387;SDS011;5240;51.128;4.566;2023-04-24T00:47:15;19.08;;;14.80;;
10387;SDS011;5240;51.128;4.566;2023-04-24T00:49:43;17.08;;;14.98;;
10387;SDS011;5240;51.128;4.566;2023-04-24T00:52:10;19.02;;;14.43;;
10387;SDS011;5240;51.128;4.566;2023-04-24T00:54:37;17.25;;;14.45;;
10387;SDS011;5240;51.128;4.566;2023-04-24T00:57:04;21.48;;;15.27;;
10387;SDS011;5240;51.128;4.566;2023-04-24T00:59:31;19.63;;;14.60;;
10387;SDS011;5240;51.128;4.566;2023-04-24T01:01:58;19.42;;;15.65;;
10387;SDS011;5240;51.128;4.566;2023-04-24T01:04:28;17.48;;;15.10;;
10387;SDS011;5240;51.128;4.566;2023-04-24T01:06:55;19.85;;;14.95;;
10387;SDS011;5240;51.128;4.566;2023-04-24T01:09:23;18.48;;;14.73;;
10387;SDS011;5240;51.128;4.566;2023-04-24T01:11:51;22.20;;;15.90;;
10387;SDS011;5240;51.128;4.566;2023-04-24T01:14:18;23.08;;;15.48;;
10387;SDS011;5240;51.128;4.566;2023-04-24T01:16:45;18.65;;;14.73;;
10387;SDS011;5240;51.128;4.566;2023-04-24T01:19:12;18.45;;;14.50;;
10387;SDS011;5240;51.128;4.566;2023-04-24T01:21:42;21.50;;;14.20;;
10387;SDS011;5240;51.128;4.566;2023-04-24T01:24:11;18.92;;;13.85;;
10387;SDS011;5240;51.128;4.566;2023-04-24T01:26:39;18.65;;;14.07;;
10387;SDS011;5240;51.128;4.566;2023-04-24T01:29:06;19.25;;;14.50;;
10387;SDS011;5240;51.128;4.566;2023-04-24T01:31:33;20.05;;;14.43;;
10387;SDS011;5240;51.128;4.566;2023-04-24T01:34:01;21.63;;;13.88;;
10387;SDS011;5240;51.128;4.566;2023-04-24T01:36:28;17.95;;;13.75;;
10387;SDS011;5240;51.128;4.566;2023-04-24T01:38:57;20.75;;;13.82;;
10387;SDS011;5240;51.128;4.566;2023-04-24T01:41:25;19.42;;;13.77;;
10387;SDS011;5240;51.128;4.566;2023-04-24T01:43:53;17.70;;;13.57;;
10387;SDS011;5240;51.128;4.566;2023-04-24T01:46:20;18.98;;;14.55;;
10387;SDS011;5240;51.128;4.566;2023-04-24T01:48:47;22.10;;;15.23;;
10387;SDS011;5240;51.128;4.566;2023-04-24T01:51:15;18.20;;;14.82;;
10387;SDS011;5240;51.128;4.566;2023-04-24T01:53:42;19.27;;;14.80;;
10387;SDS011;5240;51.128;4.566;2023-04-24T01:56:09;21.02;;;15.45;;
10387;SDS011;5240;51.128;4.566;2023-04-24T01:58:38;16.85;;;14.25;;
10387;SDS011;5240;51.128;4.566;2023-04-24T02:01:06;22.95;;;14.85;;
10387;SDS011;5240;51.128;4.566;2023-04-24T02:03:33;21.00;;;14.88;;
10387;SDS011;5240;51.128;4.566;2023-04-24T02:06:00;25.13;;;14.57;;
10387;SDS011;5240;51.128;4.566;2023-04-24T02:08:27;20.35;;;14.23;;
10387;SDS011;5240;51.128;4.566;2023-04-24T02:10:54;18.10;;;14.80;;
10387;SDS011;5240;51.128;4.566;2023-04-24T02:13:22;17.67;;;13.80;;
10387;SDS011;5240;51.128;4.566;2023-04-24T02:15:50;17.80;;;13.77;;
10387;SDS011;5240;51.128;4.566;2023-04-24T02:18:17;20.02;;;13.25;;
10387;SDS011;5240;51.128;4.566;2023-04-24T02:20:44;15.68;;;12.55;;
10387;SDS011;5240;51.128;4.566;2023-04-24T02:23:11;15.30;;;12.38;;
10387;SDS011;5240;51.128;4.566;2023-04-24T02:25:39;15.10;;;12.18;;
10387;SDS011;5240;51.128;4.566;2023-04-24T02:28:06;15.52;;;12.18;;
10387;SDS011;5240;51.128;4.566;2023-04-24T02:30:33;14.18;;;12.55;;
10387;SDS011;5240;51.128;4.566;2023-04-24T02:33:02;12.60;;;11.30;;
10387;SDS011;5240;51.128;4.566;2023-04-24T02:35:29;14.30;;;11.27;;
10387;SDS011;5240;51.128;4.566;2023-04-24T02:37:56;10.88;;;9.77;;
10387;SDS011;5240;51.128;4.566;2023-04-24T02:40:23;11.27;;;10.07;;
10387;SDS011;5240;51.128;4.566;2023-04-24T02:42:50;11.18;;;10.10;;
10387;SDS011;5240;51.128;4.566;2023-04-24T02:45:17;11.00;;;9.90;;
10387;SDS011;5240;51.128;4.566;2023-04-24T02:47:44;13.75;;;11.02;;
10387;SDS011;5240;51.128;4.566;2023-04-24T02:50:13;11.15;;;10.05;;
10387;SDS011;5240;51.128;4.566;2023-04-24T02:52:40;11.93;;;10.45;;
10387;SDS011;5240;51.128;4.566;2023-04-24T02:55:07;10.85;;;9.77;;
10387;SDS011;5240;51.128;4.566;2023-04-24T02:57:34;12.02;;;9.85;;
10387;SDS011;5240;51.128;4.566;2023-04-24T03:00:02;10.50;;;9.45;;
10387;SDS011;5240;51.128;4.566;2023-04-24T03:02:32;10.25;;;9.25;;
10387;SDS011;5240;51.128;4.566;2023-04-24T03:04:59;9.68;;;8.88;;
10387;SDS011;5240;51.128;4.566;2023-04-24T03:07:28;11.55;;;10.20;;
10387;SDS011;5240;51.128;4.566;2023-04-24T03:09:56;13.18;;;10.55;;
10387;SDS011;5240;51.128;4.566;2023-04-24T03:12:23;11.93;;;10.10;;
10387;SDS011;5240;51.128;4.566;2023-04-24T03:14:50;12.65;;;11.10;;
10387;SDS011;5240;51.128;4.566;2023-04-24T03:17:18;12.80;;;11.10;;
10387;SDS011;5240;51.128;4.566;2023-04-24T03:19:45;13.18;;;11.88;;
10387;SDS011;5240;51.128;4.566;2023-04-24T03:22:12;14.63;;;12.25;;
10387;SDS011;5240;51.128;4.566;2023-04-24T03:24:41;16.08;;;12.57;;
10387;SDS011;5240;51.128;4.566;2023-04-24T03:27:08;15.80;;;12.77;;
10387;SDS011;5240;51.128;4.566;2023-04-24T03:29:35;15.10;;;12.77;;
10387;SDS011;5240;51.128;4.566;2023-04-24T03:32:03;16.02;;;13.10;;
10387;SDS011;5240;51.128;4.566;2023-04-24T03:34:30;16.65;;;13.90;;
10387;SDS011;5240;51.128;4.566;2023-04-24T03:36:57;15.40;;;13.85;;
10387;SDS011;5240;51.128;4.566;2023-04-24T03:39:25;16.40;;;14.05;;
10387;SDS011;5240;51.128;4.566;2023-04-24T03:41:53;15.80;;;13.93;;
10387;SDS011;5240;51.128;4.566;2023-04-24T03:44:21;15.70;;;14.25;;
10387;SDS011;5240;51.128;4.566;2023-04-24T03:46:48;15.80;;;14.18;;
10387;SDS011;5240;51.128;4.566;2023-04-24T03:49:15;14.75;;;13.27;;
10387;SDS011;5240;51.128;4.566;2023-04-24T03:51:42;15.25;;;13.75;;
10387;SDS011;5240;51.128;4.566;2023-04-24T03:54:10;15.27;;;13.48;;
10387;SDS011;5240;51.128;4.566;2023-04-24T03:56:37;13.23;;;11.90;;
10387;SDS011;5240;51.128;4.566;2023-04-24T03:59:06;12.13;;;10.88;;
10387;SDS011;5240;51.128;4.566;2023-04-24T04:01:33;13.13;;;10.48;;
10387;SDS011;5240;51.128;4.566;2023-04-24T04:04:02;14.38;;;10.00;;
10387;SDS011;5240;51.128;4.566;2023-04-24T04:06:29;12.35;;;10.82;;
10387;SDS011;5240;51.128;4.566;2023-04-24T04:08:56;11.35;;;10.05;;
10387;SDS011;5240;51.128;4.566;2023-04-24T04:11:24;11.20;;;9.98;;
10387;SDS011;5240;51.128;4.566;2023-04-24T04:13:51;11.18;;;9.30;;
10387;SDS011;5240;51.128;4.566;2023-04-24T04:16:20;10.70;;;9.23;;
10387;SDS011;5240;51.128;4.566;2023-04-24T04:18:47;10.40;;;8.48;;
10387;SDS011;5240;51.128;4.566;2023-04-24T04:21:14;9.45;;;7.57;;
10387;SDS011;5240;51.128;4.566;2023-04-24T04:23:42;10.25;;;7.70;;
10387;SDS011;5240;51.128;4.566;2023-04-24T04:26:10;9.43;;;7.00;;
10387;SDS011;5240;51.128;4.566;2023-04-24T04:28:38;10.35;;;7.70;;
10387;SDS011;5240;51.128;4.566;2023-04-24T04:31:05;7.28;;;6.32;;
10387;SDS011;5240;51.128;4.566;2023-04-24T04:33:36;7.90;;;5.65;;
10387;SDS011;5240;51.128;4.566;2023-04-24T04:36:04;6.40;;;5.80;;
10387;SDS011;5240;51.128;4.566;2023-04-24T04:38:31;8.20;;;6.22;;
10387;SDS011;5240;51.128;4.566;2023-04-24T04:41:00;8.43;;;6.25;;
10387;SDS011;5240;51.128;4.566;2023-04-24T04:43:28;8.73;;;6.18;;
10387;SDS011;5240;51.128;4.566;2023-04-24T04:45:55;8.52;;;6.43;;
10387;SDS011;5240;51.128;4.566;2023-04-24T04:48:23;7.22;;;6.20;;
10387;SDS011;5240;51.128;4.566;2023-04-24T04:50:51;8.80;;;7.15;;
10387;SDS011;5240;51.128;4.566;2023-04-24T04:53:19;9.93;;;8.00;;
10387;SDS011;5240;51.128;4.566;2023-04-24T04:55:46;11.45;;;8.93;;
10387;SDS011;5240;51.128;4.566;2023-04-24T04:58:13;15.40;;;10.38;;
10387;SDS011;5240;51.128;4.566;2023-04-24T05:00:41;15.93;;;12.02;;
10387;SDS011;5240;51.128;4.566;2023-04-24T05:03:08;19.40;;;12.60;;
10387;SDS011;5240;51.128;4.566;2023-04-24T05:05:35;16.88;;;12.68;;
10387;SDS011;5240;51.128;4.566;2023-04-24T05:08:07;22.30;;;13.13;;
10387;SDS011;5240;51.128;4.566;2023-04-24T05:10:34;20.40;;;15.02;;
10387;SDS011;5240;51.128;4.566;2023-04-24T05:13:02;22.58;;;16.08;;
10387;SDS011;5240;51.128;4.566;2023-04-24T05:15:29;21.15;;;15.02;;
10387;SDS011;5240;51.128;4.566;2023-04-24T05:17:57;24.95;;;14.93;;
10387;SDS011;5240;51.128;4.566;2023-04-24T05:20:24;21.27;;;14.50;;
10387;SDS011;5240;51.128;4.566;2023-04-24T05:22:51;20.23;;;14.50;;
10387;SDS011;5240;51.128;4.566;2023-04-24T05:25:20;18.35;;;13.48;;
10387;SDS011;5240;51.128;4.566;2023-04-24T05:27:47;22.38;;;14.38;;
10387;SDS011;5240;51.128;4.566;2023-04-24T05:30:14;24.13;;;14.35;;
10387;SDS011;5240;51.128;4.566;2023-04-24T05:32:42;26.33;;;14.40;;
10387;SDS011;5240;51.128;4.566;2023-04-24T05:35:09;19.15;;;12.50;;
10387;SDS011;5240;51.128;4.566;2023-04-24T05:37:37;16.00;;;11.80;;
10387;SDS011;5240;51.128;4.566;2023-04-24T05:40:04;18.60;;;11.15;;
10387;SDS011;5240;51.128;4.566;2023-04-24T05:42:33;16.70;;;10.40;;
10387;SDS011;5240;51.128;4.566;2023-04-24T05:45:00;13.10;;;10.07;;
10387;SDS011;5240;51.128;4.566;2023-04-24T05:47:28;15.25;;;10.40;;
10387;SDS011;5240;51.128;4.566;2023-04-24T05:49:55;13.40;;;9.77;;
10387;SDS011;5240;51.128;4.566;2023-04-24T05:52:22;14.32;;;9.85;;
10387;SDS011;5240;51.128;4.566;2023-04-24T05:54:50;13.32;;;10.32;;
10387;SDS011;5240;51.128;4.566;2023-04-24T05:57:17;15.07;;;10.60;;
10387;SDS011;5240;51.128;4.566;2023-04-24T05:59:46;17.75;;;9.93;;
10387;SDS011;5240;51.128;4.566;2023-04-24T06:02:13;13.93;;;11.10;;
10387;SDS011;5240;51.128;4.566;2023-04-24T06:04:41;20.52;;;11.43;;
10387;SDS011;5240;51.128;4.566;2023-04-24T06:07:09;19.20;;;12.30;;
10387;SDS011;5240;51.128;4.566;2023-04-24T06:09:36;18.27;;;11.65;;
10387;SDS011;5240;51.128;4.566;2023-04-24T06:12:04;18.92;;;12.65;;
10387;SDS011;5240;51.128;4.566;2023-04-24T06:14:33;23.42;;;12.95;;
10387;SDS011;5240;51.128;4.566;2023-04-24T06:17:01;18.88;;;12.55;;
10387;SDS011;5240;51.128;4.566;2023-04-24T06:19:31;19.45;;;13.23;;
10387;SDS011;5240;51.128;4.566;2023-04-24T06:21:59;21.08;;;12.68;;
10387;SDS011;5240;51.128;4.566;2023-04-24T06:24:27;18.25;;;12.18;;
10387;SDS011;5240;51.128;4.566;2023-04-24T06:26:57;21.17;;;13.50;;
10387;SDS011;5240;51.128;4.566;2023-04-24T06:29:25;23.15;;;13.85;;
10387;SDS011;5240;51.128;4.566;2023-04-24T06:31:55;20.88;;;12.95;;
10387;SDS011;5240;51.128;4.566;2023-04-24T06:34:24;16.77;;;13.05;;
10387;SDS011;5240;51.128;4.566;2023-04-24T06:36:51;19.05;;;13.23;;
10387;SDS011;5240;51.128;4.566;2023-04-24T06:39:22;20.27;;;13.75;;
10387;SDS011;5240;51.128;4.566;2023-04-24T06:41:50;17.63;;;14.05;;
10387;SDS011;5240;51.128;4.566;2023-04-24T06:44:17;18.67;;;12.55;;
10387;SDS011;5240;51.128;4.566;2023-04-24T06:46:44;20.13;;;13.48;;
10387;SDS011;5240;51.128;4.566;2023-04-24T06:49:13;19.35;;;13.50;;
10387;SDS011;5240;51.128;4.566;2023-04-24T06:51:43;21.92;;;14.25;;
10387;SDS011;5240;51.128;4.566;2023-04-24T06:54:10;20.92;;;13.73;;
10387;SDS011;5240;51.128;4.566;2023-04-24T06:56:37;20.20;;;14.75;;
10387;SDS011;5240;51.128;4.566;2023-04-24T06:59:05;25.75;;;16.70;;
10387;SDS011;5240;51.128;4.566;2023-04-24T07:01:32;32.63;;;19.77;;
10387;SDS011;5240;51.128;4.566;2023-04-24T07:03:59;27.88;;;19.52;;
10387;SDS011;5240;51.128;4.566;2023-04-24T07:06:26;28.65;;;19.52;;
10387;SDS011;5240;51.128;4.566;2023-04-24T07:08:54;27.40;;;17.20;;
10387;SDS011;5240;51.128;4.566;2023-04-24T07:11:22;26.60;;;16.77;;
10387;SDS011;5240;51.128;4.566;2023-04-24T07:13:49;27.83;;;17.35;;
10387;SDS011;5240;51.128;4.566;2023-04-24T07:16:16;25.48;;;14.63;;
10387;SDS011;5240;51.128;4.566;2023-04-24T07:18:44;19.98;;;12.63;;
10387;SDS011;5240;51.128;4.566;2023-04-24T07:21:11;20.02;;;10.73;;
10387;SDS011;5240;51.128;4.566;2023-04-24T07:23:40;19.70;;;9.57;;
10387;SDS011;5240;51.128;4.566;2023-04-24T07:26:10;17.35;;;10.25;;
10387;SDS011;5240;51.128;4.566;2023-04-24T07:28:40;11.20;;;8.43;;
10387;SDS011;5240;51.128;4.566;2023-04-24T07:31:07;16.13;;;8.02;;
10387;SDS011;5240;51.128;4.566;2023-04-24T07:33:42;16.13;;;7.80;;
10387;SDS011;5240;51.128;4.566;2023-04-24T07:36:09;13.55;;;8.02;;
10387;SDS011;5240;51.128;4.566;2023-04-24T07:38:40;12.65;;;7.40;;
10387;SDS011;5240;51.128;4.566;2023-04-24T07:41:07;14.25;;;7.45;;
10387;SDS011;5240;51.128;4.566;2023-04-24T07:43:36;16.90;;;7.30;;
10387;SDS011;5240;51.128;4.566;2023-04-24T07:46:03;18.40;;;7.60;;
10387;SDS011;5240;51.128;4.566;2023-04-24T07:48:31;12.30;;;7.18;;
10387;SDS011;5240;51.128;4.566;2023-04-24T07:50:58;12.20;;;5.38;;
10387;SDS011;5240;51.128;4.566;2023-04-24T07:53:25;11.80;;;5.90;;
10387;SDS011;5240;51.128;4.566;2023-04-24T07:55:53;10.75;;;5.20;;
10387;SDS011;5240;51.128;4.566;2023-04-24T07:58:25;8.38;;;4.47;;
10387;SDS011;5240;51.128;4.566;2023-04-24T08:00:53;9.63;;;4.72;;
10387;SDS011;5240;51.128;4.566;2023-04-24T08:03:20;12.70;;;4.82;;
10387;SDS011;5240;51.128;4.566;2023-04-24T08:05:48;11.07;;;4.35;;
10387;SDS011;5240;51.128;4.566;2023-04-24T08:08:17;15.63;;;4.93;;
10387;SDS011;5240;51.128;4.566;2023-04-24T08:10:44;9.85;;;4.25;;
10387;SDS011;5240;51.128;4.566;2023-04-24T08:13:12;10.27;;;4.25;;
10387;SDS011;5240;51.128;4.566;2023-04-24T08:15:41;14.13;;;4.30;;
10387;SDS011;5240;51.128;4.566;2023-04-24T08:18:08;11.57;;;4.57;;
10387;SDS011;5240;51.128;4.566;2023-04-24T08:20:37;10.35;;;4.43;;
10387;SDS011;5240;51.128;4.566;2023-04-24T08:23:04;12.32;;;5.13;;
10387;SDS011;5240;51.128;4.566;2023-04-24T08:25:36;9.88;;;4.13;;
10387;SDS011;5240;51.128;4.566;2023-04-24T08:28:05;12.65;;;4.05;;
10387;SDS011;5240;51.128;4.566;2023-04-24T08:30:33;10.95;;;4.13;;
10387;SDS011;5240;51.128;4.566;2023-04-24T08:35:43;12.77;;;4.80;;
10387;SDS011;5240;51.128;4.566;2023-04-24T08:38:17;12.55;;;5.10;;
10387;SDS011;5240;51.128;4.566;2023-04-24T08:40:45;10.43;;;4.80;;
10387;SDS011;5240;51.128;4.566;2023-04-24T08:46:11;17.35;;;5.70;;
10387;SDS011;5240;51.128;4.566;2023-04-24T08:49:17;12.75;;;5.10;;
10387;SDS011;5240;51.128;4.566;2023-04-24T08:51:46;14.30;;;5.00;;
10387;SDS011;5240;51.128;4.566;2023-04-24T08:54:14;16.10;;;5.45;;
10387;SDS011;5240;51.128;4.566;2023-04-24T08:56:43;19.67;;;5.10;;
10387;SDS011;5240;51.128;4.566;2023-04-24T08:59:11;12.15;;;4.80;;
10387;SDS011;5240;51.128;4.566;2023-04-24T09:01:42;13.07;;;4.35;;
10387;SDS011;5240;51.128;4.566;2023-04-24T09:04:10;12.80;;;4.85;;
10387;SDS011;5240;51.128;4.566;2023-04-24T09:06:40;12.38;;;4.70;;
10387;SDS011;5240;51.128;4.566;2023-04-24T09:09:09;9.75;;;4.55;;
10387;SDS011;5240;51.128;4.566;2023-04-24T09:11:38;11.20;;;3.78;;
10387;SDS011;5240;51.128;4.566;2023-04-24T09:14:05;14.32;;;4.47;;
10387;SDS011;5240;51.128;4.566;2023-04-24T09:16:33;11.50;;;3.72;;
10387;SDS011;5240;51.128;4.566;2023-04-24T09:19:01;13.77;;;3.97;;
10387;SDS011;5240;51.128;4.566;2023-04-24T09:21:31;12.73;;;5.00;;
10387;SDS011;5240;51.128;4.566;2023-04-24T09:23:59;9.68;;;3.75;;
10387;SDS011;5240;51.128;4.566;2023-04-24T09:26:32;12.40;;;3.60;;
10387;SDS011;5240;51.128;4.566;2023-04-24T09:28:59;11.57;;;3.90;;
10387;SDS011;5240;51.128;4.566;2023-04-24T09:31:29;11.88;;;4.38;;
10387;SDS011;5240;51.128;4.566;2023-04-24T09:33:57;9.15;;;4.38;;
10387;SDS011;5240;51.128;4.566;2023-04-24T09:36:28;14.90;;;4.72;;
10387;SDS011;5240;51.128;4.566;2023-04-24T09:39:10;12.60;;;4.38;;
10387;SDS011;5240;51.128;4.566;2023-04-24T09:41:44;9.38;;;4.13;;
10387;SDS011;5240;51.128;4.566;2023-04-24T09:44:13;15.68;;;4.38;;
10387;SDS011;5240;51.128;4.566;2023-04-24T09:46:42;7.55;;;3.90;;
10387;SDS011;5240;51.128;4.566;2023-04-24T09:49:11;11.43;;;4.07;;
10387;SDS011;5240;51.128;4.566;2023-04-24T09:51:40;8.50;;;3.83;;
10387;SDS011;5240;51.128;4.566;2023-04-24T09:54:16;13.88;;;4.53;;
10387;SDS011;5240;51.128;4.566;2023-04-24T09:56:47;11.98;;;4.68;;
10387;SDS011;5240;51.128;4.566;2023-04-24T09:59:16;12.98;;;4.50;;
10387;SDS011;5240;51.128;4.566;2023-04-24T10:01:43;10.18;;;4.72;;
10387;SDS011;5240;51.128;4.566;2023-04-24T10:04:18;10.23;;;3.65;;
10387;SDS011;5240;51.128;4.566;2023-04-24T10:06:46;9.13;;;3.80;;
10387;SDS011;5240;51.128;4.566;2023-04-24T10:09:14;9.57;;;3.63;;
10387;SDS011;5240;51.128;4.566;2023-04-24T10:11:42;6.28;;;2.78;;
10387;SDS011;5240;51.128;4.566;2023-04-24T10:14:12;10.20;;;3.10;;
10387;SDS011;5240;51.128;4.566;2023-04-24T10:16:43;7.40;;;3.08;;
10387;SDS011;5240;51.128;4.566;2023-04-24T10:19:12;6.57;;;2.35;;
10387;SDS011;5240;51.128;4.566;2023-04-24T10:21:40;9.30;;;2.97;;
10387;SDS011;5240;51.128;4.566;2023-04-24T10:24:11;7.18;;;2.90;;
10387;SDS011;5240;51.128;4.566;2023-04-24T10:26:39;7.18;;;2.83;;
10387;SDS011;5240;51.128;4.566;2023-04-24T10:29:07;7.03;;;2.90;;
10387;SDS011;5240;51.128;4.566;2023-04-24T10:31:37;8.82;;;3.33;;
10387;SDS011;5240;51.128;4.566;2023-04-24T10:34:04;5.60;;;2.95;;
10387;SDS011;5240;51.128;4.566;2023-04-24T10:36:32;4.82;;;2.50;;
10387;SDS011;5240;51.128;4.566;2023-04-24T10:39:01;7.25;;;2.92;;
10387;SDS011;5240;51.128;4.566;2023-04-24T10:41:29;5.20;;;2.40;;
10387;SDS011;5240;51.128;4.566;2023-04-24T10:44:04;7.70;;;2.53;;
10387;SDS011;5240;51.128;4.566;2023-04-24T10:46:32;3.78;;;1.90;;
10387;SDS011;5240;51.128;4.566;2023-04-24T10:49:04;5.15;;;2.60;;
10387;SDS011;5240;51.128;4.566;2023-04-24T10:51:47;4.63;;;2.50;;
10387;SDS011;5240;51.128;4.566;2023-04-24T10:54:24;5.38;;;2.65;;
10387;SDS011;5240;51.128;4.566;2023-04-24T10:56:52;6.47;;;2.58;;
10387;SDS011;5240;51.128;4.566;2023-04-24T10:59:26;5.28;;;2.45;;
10387;SDS011;5240;51.128;4.566;2023-04-24T11:01:54;4.72;;;2.50;;
10387;SDS011;5240;51.128;4.566;2023-04-24T11:04:33;6.40;;;2.80;;
10387;SDS011;5240;51.128;4.566;2023-04-24T11:07:08;7.53;;;2.58;;
10387;SDS011;5240;51.128;4.566;2023-04-24T11:09:37;7.28;;;2.85;;
10387;SDS011;5240;51.128;4.566;2023-04-24T11:12:06;7.20;;;2.78;;
10387;SDS011;5240;51.128;4.566;2023-04-24T11:17:28;6.95;;;2.50;;
10387;SDS011;5240;51.128;4.566;2023-04-24T11:20:01;6.65;;;2.90;;
10387;SDS011;5240;51.128;4.566;2023-04-24T11:22:37;6.47;;;2.80;;
10387;SDS011;5240;51.128;4.566;2023-04-24T11:25:06;4.43;;;2.60;;
10387;SDS011;5240;51.128;4.566;2023-04-24T11:27:38;4.35;;;2.70;;
10387;SDS011;5240;51.128;4.566;2023-04-24T11:30:06;4.00;;;2.42;;
10387;SDS011;5240;51.128;4.566;2023-04-24T11:32:35;8.05;;;2.85;;
10387;SDS011;5240;51.128;4.566;2023-04-24T11:35:05;6.90;;;2.88;;
10387;SDS011;5240;51.128;4.566;2023-04-24T11:37:36;5.88;;;2.50;;
10387;SDS011;5240;51.128;4.566;2023-04-24T11:40:04;5.15;;;2.17;;
10387;SDS011;5240;51.128;4.566;2023-04-24T11:42:37;5.00;;;2.35;;
10387;SDS011;5240;51.128;4.566;2023-04-24T11:45:10;4.63;;;2.40;;
10387;SDS011;5240;51.128;4.566;2023-04-24T11:47:44;5.03;;;2.40;;
10387;SDS011;5240;51.128;4.566;2023-04-24T11:50:15;3.67;;;2.17;;
10387;SDS011;5240;51.128;4.566;2023-04-24T11:52:48;7.40;;;2.17;;
10387;SDS011;5240;51.128;4.566;2023-04-24T11:55:28;5.80;;;2.40;;
10387;SDS011;5240;51.128;4.566;2023-04-24T11:57:57;7.40;;;2.28;;
10387;SDS011;5240;51.128;4.566;2023-04-24T12:00:36;3.25;;;1.90;;
10387;SDS011;5240;51.128;4.566;2023-04-24T12:03:08;5.00;;;2.25;;
10387;SDS011;5240;51.128;4.566;2023-04-24T12:05:42;2.90;;;2.00;;
10387;SDS011;5240;51.128;4.566;2023-04-24T12:08:13;3.05;;;2.10;;
10387;SDS011;5240;51.128;4.566;2023-04-24T12:11:00;3.97;;;1.90;;
10387;SDS011;5240;51.128;4.566;2023-04-24T12:13:29;4.22;;;2.00;;
10387;SDS011;5240;51.128;4.566;2023-04-24T12:15:56;3.67;;;2.05;;
10387;SDS011;5240;51.128;4.566;2023-04-24T12:18:41;4.50;;;2.08;;
10387;SDS011;5240;51.128;4.566;2023-04-24T12:21:16;3.25;;;1.92;;
10387;SDS011;5240;51.128;4.566;2023-04-24T12:23:44;4.68;;;2.08;;
10387;SDS011;5240;51.128;4.566;2023-04-24T12:26:12;4.65;;;2.22;;
10387;SDS011;5240;51.128;4.566;2023-04-24T12:28:42;5.00;;;2.13;;
10387;SDS011;5240;51.128;4.566;2023-04-24T12:31:12;4.70;;;2.10;;
10387;SDS011;5240;51.128;4.566;2023-04-24T12:33:42;4.97;;;2.20;;
10387;SDS011;5240;51.128;4.566;2023-04-24T12:36:12;5.18;;;2.10;;
10387;SDS011;5240;51.128;4.566;2023-04-24T12:38:43;4.70;;;2.45;;
10387;SDS011;5240;51.128;4.566;2023-04-24T12:41:21;5.63;;;2.05;;
10387;SDS011;5240;51.128;4.566;2023-04-24T12:43:50;5.38;;;2.10;;
10387;SDS011;5240;51.128;4.566;2023-04-24T12:46:18;6.05;;;2.28;;
10387;SDS011;5240;51.128;4.566;2023-04-24T12:48:46;4.10;;;1.70;;
10387;SDS011;5240;51.128;4.566;2023-04-24T12:51:13;4.70;;;2.00;;
10387;SDS011;5240;51.128;4.566;2023-04-24T12:53:43;2.92;;;1.90;;
10387;SDS011;5240;51.128;4.566;2023-04-24T12:56:12;4.80;;;2.05;;
10387;SDS011;5240;51.128;4.566;2023-04-24T12:58:39;3.75;;;2.28;;
10387;SDS011;5240;51.128;4.566;2023-04-24T13:01:06;5.05;;;1.98;;
10387;SDS011;5240;51.128;4.566;2023-04-24T13:03:36;6.80;;;2.17;;
10387;SDS011;5240;51.128;4.566;2023-04-24T13:06:08;7.88;;;2.53;;
10387;SDS011;5240;51.128;4.566;2023-04-24T13:08:35;4.50;;;2.05;;
10387;SDS011;5240;51.128;4.566;2023-04-24T13:11:04;6.03;;;2.22;;
10387;SDS011;5240;51.128;4.566;2023-04-24T13:13:33;3.92;;;2.25;;
10387;SDS011;5240;51.128;4.566;2023-04-24T13:16:02;7.68;;;2.38;;
10387;SDS011;5240;51.128;4.566;2023-04-24T13:18:29;7.53;;;2.17;;
10387;SDS011;5240;51.128;4.566;2023-04-24T13:20:57;3.72;;;2.05;;
10387;SDS011;5240;51.128;4.566;2023-04-24T13:23:24;4.75;;;2.17;;
10387;SDS011;5240;51.128;4.566;2023-04-24T13:25:53;7.80;;;2.17;;
10387;SDS011;5240;51.128;4.566;2023-04-24T13:28:24;4.07;;;2.20;;
10387;SDS011;5240;51.128;4.566;2023-04-24T13:30:51;3.67;;;1.90;;
10387;SDS011;5240;51.128;4.566;2023-04-24T13:33:18;3.28;;;1.90;;
10387;SDS011;5240;51.128;4.566;2023-04-24T13:35:45;3.65;;;2.00;;
10387;SDS011;5240;51.128;4.566;2023-04-24T13:38:12;5.68;;;1.90;;
10387;SDS011;5240;51.128;4.566;2023-04-24T13:40:40;4.18;;;1.98;;
10387;SDS011;5240;51.128;4.566;2023-04-24T13:43:07;5.38;;;1.98;;
10387;SDS011;5240;51.128;4.566;2023-04-24T13:45:50;2.30;;;1.83;;
10387;SDS011;5240;51.128;4.566;2023-04-24T13:48:18;5.88;;;1.90;;
10387;SDS011;5240;51.128;4.566;2023-04-24T13:50:46;5.03;;;2.10;;
10387;SDS011;5240;51.128;4.566;2023-04-24T13:53:14;5.35;;;2.20;;
10387;SDS011;5240;51.128;4.566;2023-04-24T13:55:42;4.60;;;1.92;;
10387;SDS011;5240;51.128;4.566;2023-04-24T13:58:09;5.30;;;2.00;;
10387;SDS011;5240;51.128;4.566;2023-04-24T14:00:38;5.07;;;2.10;;
10387;SDS011;5240;51.128;4.566;2023-04-24T14:03:07;3.70;;;2.00;;
10387;SDS011;5240;51.128;4.566;2023-04-24T14:05:34;4.53;;;2.05;;
10387;SDS011;5240;51.128;4.566;2023-04-24T14:08:01;3.42;;;1.65;;
10387;SDS011;5240;51.128;4.566;2023-04-24T14:10:28;3.97;;;1.75;;
10387;SDS011;5240;51.128;4.566;2023-04-24T14:12:57;3.00;;;1.48;;
10387;SDS011;5240;51.128;4.566;2023-04-24T14:15:24;3.28;;;1.60;;
10387;SDS011;5240;51.128;4.566;2023-04-24T14:17:51;3.08;;;1.70;;
10387;SDS011;5240;51.128;4.566;2023-04-24T14:20:19;4.05;;;1.80;;
10387;SDS011;5240;51.128;4.566;2023-04-24T14:22:47;2.78;;;1.85;;
10387;SDS011;5240;51.128;4.566;2023-04-24T14:25:14;3.08;;;1.90;;
10387;SDS011;5240;51.128;4.566;2023-04-24T14:27:41;2.25;;;1.67;;
10387;SDS011;5240;51.128;4.566;2023-04-24T14:30:09;4.70;;;1.60;;
10387;SDS011;5240;51.128;4.566;2023-04-24T14:32:37;1.65;;;1.38;;
10387;SDS011;5240;51.128;4.566;2023-04-24T14:35:09;1.48;;;1.33;;
10387;SDS011;5240;51.128;4.566;2023-04-24T14:37:43;2.67;;;1.50;;
10387;SDS011;5240;51.128;4.566;2023-04-24T14:40:10;3.30;;;1.40;;
10387;SDS011;5240;51.128;4.566;2023-04-24T14:45:13;5.32;;;1.95;;
10387;SDS011;5240;51.128;4.566;2023-04-24T14:47:40;2.85;;;1.60;;
10387;SDS011;5240;51.128;4.566;2023-04-24T14:50:08;2.55;;;1.33;;
10387;SDS011;5240;51.128;4.566;2023-04-24T14:52:37;2.00;;;1.40;;
10387;SDS011;5240;51.128;4.566;2023-04-24T14:55:06;2.83;;;1.60;;
10387;SDS011;5240;51.128;4.566;2023-04-24T14:57:33;4.10;;;1.85;;
10387;SDS011;5240;51.128;4.566;2023-04-24T15:00:03;2.70;;;1.63;;
10387;SDS011;5240;51.128;4.566;2023-04-24T15:02:33;3.90;;;1.92;;
10387;SDS011;5240;51.128;4.566;2023-04-24T15:05:02;3.58;;;1.60;;
10387;SDS011;5240;51.128;4.566;2023-04-24T15:07:30;4.05;;;2.00;;